Aviation Digital Data Service (ADDS)

Output produced by METARs form (2136 UTC 21 May 2022)
found at http://www.aviationweather.gov/metar/data/
 
EGGD 212120Z AUTO 24004KT 190V260 9999 SCT030 12/06 Q1020
EGGD 212050Z AUTO 24003KT 180V260 9999 BKN028 13/06 Q1020
EGGD 212020Z AUTO 21003KT 180V260 9999 BKN039 13/07 Q1019
EGGD 211950Z AUTO 25005KT 9000 OVC039 14/07 Q1019
EGGD 211920Z AUTO 25004KT 9999 BKN038 14/07 Q1019
EGGD 211850Z AUTO 26005KT 9999 NCD 15/08 Q1020
TAF AMD EGGD 211953Z 2119/2218 23006KT 9999 SCT030 
     PROB30 2119/2207 6000